Time;durP1;ratioP1;P1;durP2;ratioP2;P2;SDS_P1;SDS_P2;PMS_P1;PMS_P2;Temp;Humidity;BMP_temperature;BMP_pressure;BME280_temperature;BME280_humidity;BME280_pressure;Samples;Min_cycle;Max_cycle;Signal;HPM_P1;HPM_P2
2022/08/04 00:00:54;;;;;;;16.05;5.13;;;18.50;99.90;;;;;;5057837;28;20784;-66
2022/08/04 00:03:23;;;;;;;12.57;5.50;;;18.50;99.90;;;;;;5061878;28;20054;-66
2022/08/04 00:06:01;;;;;;;14.75;5.82;;;18.40;99.90;;;;;;5063217;28;20115;-66
2022/08/04 00:08:52;;;;;;;12.82;5.82;;;18.50;99.90;;;;;;5062468;28;20041;-66
2022/08/04 00:11:21;;;;;;;13.10;5.35;;;18.50;99.90;;;;;;5078281;28;20489;-66
2022/08/04 00:14:11;;;;;;;12.77;5.22;;;18.60;99.90;;;;;;5057532;28;20037;-66
2022/08/04 00:16:38;;;;;;;15.68;5.93;;;18.50;99.90;;;;;;5055485;28;20041;-66
2022/08/04 00:19:10;;;;;;;8.07;5.40;;;18.50;99.90;;;;;;5075218;28;20040;-66
2022/08/04 00:21:40;;;;;;;14.38;5.80;;;18.50;99.90;;;;;;5053265;28;20064;-66
2022/08/04 00:24:08;;;;;;;18.35;6.85;;;18.60;99.90;;;;;;5055775;28;20040;-66
2022/08/04 00:26:34;;;;;;;11.15;5.63;;;18.70;99.90;;;;;;5057989;28;20049;-66
2022/08/04 00:29:00;;;;;;;13.18;6.90;;;18.70;99.90;;;;;;5055768;28;20041;-66
2022/08/04 00:31:27;;;;;;;9.80;4.90;;;18.70;99.90;;;;;;5054831;28;20044;-66
2022/08/04 00:33:53;;;;;;;6.40;3.67;;;18.70;99.90;;;;;;5067833;28;20431;-66
2022/08/04 00:36:20;;;;;;;9.85;4.53;;;18.70;99.90;;;;;;5070865;28;20075;-65
2022/08/04 00:38:46;;;;;;;9.30;4.32;;;18.60;99.90;;;;;;5061014;28;20040;-66
2022/08/04 00:41:11;;;;;;;9.95;5.15;;;18.60;99.90;;;;;;5060637;28;20047;-66
2022/08/04 00:44:02;;;;;;;13.40;4.95;;;18.60;99.90;;;;;;5060360;28;20036;-66
2022/08/04 00:46:53;;;;;;;11.07;5.28;;;18.40;99.90;;;;;;5052226;28;20119;-66
2022/08/04 00:49:51;;;;;;;14.30;5.38;;;18.30;99.90;;;;;;5059195;28;20491;-66
2022/08/04 00:52:46;;;;;;;9.20;4.97;;;18.30;99.90;;;;;;5057599;28;20036;-66
2022/08/04 00:55:45;;;;;;;9.25;4.53;;;18.10;99.90;;;;;;5053556;28;20049;-66
2022/08/04 00:58:17;;;;;;;11.00;4.78;;;18.00;99.90;;;;;;5054918;28;21561;-66
2022/08/04 01:00:53;;;;;;;9.98;4.82;;;17.90;99.90;;;;;;5062802;28;20036;-66
2022/08/04 01:03:45;;;;;;;11.43;5.32;;;17.90;99.90;;;;;;5071081;28;20089;-66
2022/08/04 01:06:35;;;;;;;11.82;4.60;;;17.90;99.90;;;;;;5046006;28;20072;-66
2022/08/04 01:09:16;;;;;;;11.70;5.25;;;18.00;99.90;;;;;;5048904;28;20064;-66
2022/08/04 01:11:59;;;;;;;18.80;6.43;;;17.80;99.90;;;;;;5057301;28;20072;-66
2022/08/04 01:15:04;;;;;;;8.55;4.75;;;17.90;99.90;;;;;;5053483;28;20076;-66
2022/08/04 01:17:49;;;;;;;10.48;6.32;;;17.80;99.90;;;;;;5055709;28;20064;-66
2022/08/04 01:20:20;;;;;;;11.00;6.13;;;17.80;99.90;;;;;;5060482;28;20045;-66
2022/08/04 01:22:59;;;;;;;14.35;5.95;;;17.70;99.90;;;;;;5057011;28;20457;-67
2022/08/04 01:25:59;;;;;;;11.10;6.20;;;17.70;99.90;;;;;;5058036;28;20041;-67
2022/08/04 01:29:09;;;;;;;15.63;6.57;;;17.70;99.90;;;;;;5043292;28;20370;-67
2022/08/04 01:31:54;;;;;;;13.77;6.78;;;17.70;99.90;;;;;;5055393;28;20060;-67
2022/08/04 01:34:21;;;;;;;15.88;7.10;;;17.70;99.90;;;;;;5061948;28;20064;-67
2022/08/04 01:37:07;;;;;;;14.52;7.30;;;17.70;99.90;;;;;;5058538;28;20064;-67
2022/08/04 01:39:43;;;;;;;14.25;7.13;;;17.70;99.90;;;;;;5070064;28;20515;-67
2022/08/04 01:42:10;;;;;;;16.92;7.10;;;17.70;99.90;;;;;;5070070;28;20036;-66
2022/08/04 01:44:38;;;;;;;15.77;6.65;;;17.60;99.90;;;;;;5058152;28;20041;-67
2022/08/04 01:47:05;;;;;;;15.35;6.93;;;17.50;99.90;;;;;;5062207;28;20062;-67
2022/08/04 01:49:32;;;;;;;15.30;7.82;;;17.60;99.90;;;;;;5062772;28;20082;-68
2022/08/04 01:52:01;;;;;;;14.93;7.57;;;17.60;99.90;;;;;;5059348;28;20123;-67
2022/08/04 01:54:29;;;;;;;13.07;7.63;;;17.60;99.90;;;;;;5060741;28;20072;-67
2022/08/04 01:56:56;;;;;;;14.88;7.90;;;17.60;99.90;;;;;;5061609;28;20143;-67
2022/08/04 01:59:24;;;;;;;16.77;8.02;;;17.70;99.90;;;;;;5068866;28;20082;-67
2022/08/04 02:01:50;;;;;;;17.95;8.73;;;17.70;99.90;;;;;;5053958;28;20044;-67
2022/08/04 02:04:18;;;;;;;15.05;7.93;;;17.80;99.90;;;;;;5063730;28;20036;-67
2022/08/04 02:07:10;;;;;;;17.50;7.70;;;17.80;99.90;;;;;;5080497;28;20040;-68
2022/08/04 02:09:57;;;;;;;17.08;8.80;;;17.80;99.90;;;;;;5061937;28;20051;-67
2022/08/04 02:12:53;;;;;;;15.27;7.78;;;17.80;99.90;;;;;;5060153;28;20053;-67
2022/08/04 02:15:36;;;;;;;16.88;7.40;;;17.80;99.90;;;;;;5067605;28;20036;-67
2022/08/04 02:18:23;;;;;;;22.60;7.55;;;17.80;99.90;;;;;;5061771;28;20518;-68
2022/08/04 02:20:56;;;;;;;16.52;7.13;;;17.80;99.90;;;;;;5055414;28;20052;-67
2022/08/04 02:23:36;;;;;;;18.13;7.38;;;17.70;99.90;;;;;;5062260;28;20040;-68
2022/08/04 02:26:12;;;;;;;15.82;7.50;;;17.70;99.90;;;;;;5077973;28;20044;-67
2022/08/04 02:29:03;;;;;;;15.32;7.38;;;17.60;99.90;;;;;;5065905;28;20047;-67
2022/08/04 02:31:36;;;;;;;17.73;7.90;;;17.60;99.90;;;;;;5062835;28;20383;-67
2022/08/04 02:34:02;;;;;;;16.65;7.82;;;17.50;99.90;;;;;;5063495;28;20048;-67
2022/08/04 02:36:37;;;;;;;18.10;7.88;;;17.50;99.90;;;;;;5041194;28;20056;-67
2022/08/04 02:39:09;;;;;;;13.18;7.18;;;17.50;99.90;;;;;;5065663;28;20040;-68
2022/08/04 02:41:36;;;;;;;14.20;6.73;;;17.40;99.90;;;;;;5061330;28;20048;-67
2022/08/04 02:44:07;;;;;;;13.05;6.47;;;17.40;99.90;;;;;;5069992;28;20044;-68
2022/08/04 02:46:35;;;;;;;15.00;6.67;;;17.40;99.90;;;;;;5069655;28;20040;-67
2022/08/04 02:49:04;;;;;;;18.52;7.07;;;17.40;99.90;;;;;;5068114;28;20395;-67
2022/08/04 02:51:33;;;;;;;20.30;7.75;;;17.30;99.90;;;;;;5082591;28;20543;-67
2022/08/04 02:54:03;;;;;;;21.63;7.88;;;17.30;99.90;;;;;;5069902;28;20070;-67
2022/08/04 02:56:30;;;;;;;18.83;7.43;;;17.30;99.90;;;;;;5064654;28;20668;-67
2022/08/04 02:59:08;;;;;;;14.45;7.40;;;17.30;99.90;;;;;;5069745;28;20115;-68
2022/08/04 03:01:34;;;;;;;21.58;8.00;;;17.30;99.90;;;;;;5071409;28;20036;-67
2022/08/04 03:04:43;;;;;;;14.15;7.90;;;17.30;99.90;;;;;;5066470;28;20457;-67
2022/08/04 03:07:46;;;;;;;17.08;8.27;;;17.30;99.90;;;;;;5053959;28;20044;-68
2022/08/04 03:10:42;;;;;;;18.65;7.13;;;17.30;99.90;;;;;;5084101;28;20119;-67
2022/08/04 03:13:36;;;;;;;14.00;7.80;;;17.40;99.90;;;;;;5061922;28;20376;-67
2022/08/04 03:16:20;;;;;;;13.80;6.55;;;17.30;99.90;;;;;;5070542;28;20048;-68
2022/08/04 03:18:57;;;;;;;15.90;6.97;;;17.20;99.90;;;;;;5069601;28;20040;-68
2022/08/04 03:21:29;;;;;;;15.98;7.05;;;17.20;99.90;;;;;;5065299;28;20111;-68
2022/08/04 03:24:17;;;;;;;15.60;7.25;;;17.20;99.90;;;;;;5069983;28;20040;-68
2022/08/04 03:27:01;;;;;;;21.92;9.02;;;17.10;99.90;;;;;;5062053;28;20388;-68
2022/08/04 03:30:05;;;;;;;18.67;7.90;;;17.10;99.90;;;;;;5055041;28;20055;-67
2022/08/04 03:32:55;;;;;;;15.48;8.15;;;17.10;99.90;;;;;;5070850;28;20056;-68
2022/08/04 03:35:43;;;;;;;19.90;9.10;;;17.10;99.90;;;;;;5068338;28;20052;-68
2022/08/04 03:38:28;;;;;;;21.95;8.60;;;17.10;99.90;;;;;;5067760;28;20123;-67
2022/08/04 03:41:05;;;;;;;19.02;9.05;;;17.20;99.90;;;;;;5065707;28;20045;-68
2022/08/04 03:43:42;;;;;;;16.60;8.35;;;17.20;99.90;;;;;;5059881;28;20641;-67
2022/08/04 03:46:26;;;;;;;17.83;8.10;;;17.20;99.90;;;;;;5063311;28;20048;-67
2022/08/04 03:49:17;;;;;;;12.73;7.75;;;17.30;99.90;;;;;;5052478;28;20040;-67
2022/08/04 03:55:14;;;;;;;19.88;6.95;;;17.20;99.90;;;;;;5061561;28;20051;-68
2022/08/04 03:57:57;;;;;;;18.55;9.05;;;17.20;99.90;;;;;;5054575;28;20041;-68
2022/08/04 04:00:51;;;;;;;17.90;9.52;;;17.20;99.90;;;;;;5060643;28;20043;-68
2022/08/04 04:03:35;;;;;;;12.48;6.53;;;17.20;99.90;;;;;;5066795;28;20101;-68
2022/08/04 04:06:19;;;;;;;16.13;7.13;;;17.30;99.90;;;;;;5060148;28;20487;-68
2022/08/04 04:09:14;;;;;;;14.88;8.15;;;17.20;99.90;;;;;;5052263;28;20052;-68
2022/08/04 04:12:05;;;;;;;14.20;7.60;;;17.30;99.90;;;;;;5070491;28;20175;-68
2022/08/04 04:14:34;;;;;;;15.20;5.90;;;17.30;99.90;;;;;;5054367;28;20044;-68
2022/08/04 04:17:48;;;;;;;12.63;6.40;;;17.20;99.90;;;;;;5057687;28;20047;-68
2022/08/04 04:20:16;;;;;;;11.60;6.30;;;17.10;99.90;;;;;;5011195;28;20406;-68
2022/08/04 04:23:12;;;;;;;14.60;7.55;;;17.00;99.90;;;;;;5059213;28;20102;-68
2022/08/04 04:25:49;;;;;;;15.77;7.72;;;16.90;99.90;;;;;;5072353;28;20045;-68
2022/08/04 04:28:34;;;;;;;14.50;7.35;;;16.90;99.90;;;;;;5062745;28;20458;-68
2022/08/04 04:31:42;;;;;;;16.75;8.25;;;16.90;99.90;;;;;;5073419;28;20087;-68
2022/08/04 04:34:18;;;;;;;20.00;9.10;;;17.00;99.90;;;;;;5057797;28;20177;-68
2022/08/04 04:37:12;;;;;;;23.58;8.90;;;16.90;99.90;;;;;;5059538;28;20040;-68
2022/08/04 04:40:03;;;;;;;23.95;9.55;;;16.90;99.90;;;;;;5056144;28;20045;-68
2022/08/04 04:43:01;;;;;;;18.35;8.88;;;16.90;99.90;;;;;;5056283;28;20049;-68
2022/08/04 04:45:32;;;;;;;20.02;9.38;;;17.00;99.90;;;;;;5010225;28;20564;-68
2022/08/04 04:48:16;;;;;;;17.77;9.05;;;17.10;99.90;;;;;;5059642;28;20079;-68
2022/08/04 04:51:17;;;;;;;20.92;9.23;;;17.20;99.90;;;;;;5063442;28;20049;-67
2022/08/04 04:54:00;;;;;;;19.35;9.38;;;17.30;99.90;;;;;;5057636;28;20079;-68
2022/08/04 04:56:31;;;;;;;15.77;9.02;;;17.50;99.90;;;;;;5055406;28;20040;-68
2022/08/04 04:59:00;;;;;;;17.73;9.90;;;17.50;99.90;;;;;;5057270;28;20044;-68
2022/08/04 05:01:37;;;;;;;18.83;9.68;;;17.60;99.90;;;;;;5051785;28;20037;-68
2022/08/04 05:04:36;;;;;;;17.95;8.38;;;17.70;99.90;;;;;;5060414;28;20391;-68
2022/08/04 05:07:09;;;;;;;17.05;7.95;;;17.90;99.90;;;;;;5068376;28;20047;-67
2022/08/04 05:09:49;;;;;;;16.85;7.85;;;17.90;99.90;;;;;;5054903;28;20093;-68
2022/08/04 05:12:27;;;;;;;22.75;9.70;;;18.00;99.90;;;;;;5056961;28;20329;-68
2022/08/04 05:14:57;;;;;;;21.20;10.07;;;18.00;99.90;;;;;;5037828;28;20565;-68
2022/08/04 05:17:25;;;;;;;15.63;9.18;;;18.00;99.90;;;;;;5057245;28;20479;-67
2022/08/04 05:20:01;;;;;;;20.20;8.43;;;18.20;99.90;;;;;;5060907;28;20044;-68
2022/08/04 05:22:31;;;;;;;25.65;10.68;;;18.30;99.90;;;;;;5067055;28;20664;-68
2022/08/04 05:25:22;;;;;;;19.27;8.80;;;18.30;99.90;;;;;;5058579;28;20056;-67
2022/08/04 05:28:08;;;;;;;18.23;9.00;;;18.40;99.90;;;;;;5058602;28;20086;-67
2022/08/04 05:30:48;;;;;;;19.17;9.63;;;18.50;99.90;;;;;;5071128;28;20044;-68
2022/08/04 05:33:21;;;;;;;21.23;9.20;;;18.60;99.90;;;;;;5071681;28;20045;-67
2022/08/04 05:35:50;;;;;;;19.48;9.90;;;18.70;99.90;;;;;;5068488;28;20052;-67
2022/08/04 05:38:19;;;;;;;17.30;9.70;;;18.80;99.90;;;;;;5086703;28;20426;-67
2022/08/04 05:40:45;;;;;;;18.27;8.75;;;18.90;99.90;;;;;;5065869;28;20029;-67
2022/08/04 05:43:13;;;;;;;16.65;8.80;;;19.00;99.90;;;;;;5070221;28;20148;-67
2022/08/04 05:45:40;;;;;;;15.60;8.82;;;18.90;99.90;;;;;;5072542;28;20174;-68
2022/08/04 05:48:07;;;;;;;17.10;10.00;;;19.10;99.90;;;;;;5067883;28;20121;-67
2022/08/04 05:50:33;;;;;;;16.02;9.55;;;19.10;99.90;;;;;;5069491;28;20402;-67
2022/08/04 05:53:00;;;;;;;17.55;9.00;;;19.20;99.90;;;;;;5063439;28;20045;-66
2022/08/04 05:55:28;;;;;;;17.17;9.13;;;19.20;99.90;;;;;;5060974;28;20050;-67
2022/08/04 05:57:55;;;;;;;16.92;9.15;;;19.40;99.90;;;;;;5070686;28;20037;-66
2022/08/04 06:00:23;;;;;;;16.65;9.32;;;19.50;99.90;;;;;;5067678;28;20072;-67
2022/08/04 06:02:50;;;;;;;17.38;9.68;;;19.60;99.90;;;;;;5069325;28;20060;-67
2022/08/04 06:05:17;;;;;;;20.55;12.10;;;19.80;99.90;;;;;;5071107;28;20445;-67
2022/08/04 06:07:43;;;;;;;20.92;11.05;;;19.90;99.90;;;;;;5072951;28;20051;-66
2022/08/04 06:10:09;;;;;;;19.33;11.32;;;20.10;99.90;;;;;;5063351;28;20071;-67
2022/08/04 06:12:40;;;;;;;20.40;11.27;;;20.30;99.90;;;;;;5067122;28;20044;-66
2022/08/04 06:15:08;;;;;;;20.90;12.20;;;20.40;99.90;;;;;;5063016;28;20076;-67
2022/08/04 06:17:39;;;;;;;20.40;11.32;;;20.60;99.90;;;;;;5052222;28;20116;-66
2022/08/04 06:20:08;;;;;;;19.20;10.90;;;20.70;99.90;;;;;;5071382;28;20028;-67
2022/08/04 06:22:37;;;;;;;23.15;11.93;;;20.80;99.90;;;;;;5064734;28;20041;-66
2022/08/04 06:25:05;;;;;;;19.73;11.65;;;21.00;99.90;;;;;;5059227;28;20113;-66
2022/08/04 06:27:31;;;;;;;21.73;12.32;;;21.30;99.90;;;;;;5063105;28;20032;-66
2022/08/04 06:29:58;;;;;;;25.90;12.75;;;21.40;99.90;;;;;;5070070;28;20479;-65
2022/08/04 06:32:27;;;;;;;20.67;12.60;;;21.70;99.90;;;;;;5060587;28;20384;-66
2022/08/04 06:35:05;;;;;;;25.58;12.80;;;21.80;99.90;;;;;;5059869;28;20491;-66
2022/08/04 06:37:32;;;;;;;27.38;12.77;;;22.00;99.90;;;;;;5058750;28;20494;-66
2022/08/04 06:39:59;;;;;;;22.85;12.18;;;22.20;99.90;;;;;;5057493;28;20106;-66
2022/08/04 06:42:25;;;;;;;22.55;12.07;;;22.40;99.90;;;;;;5054094;28;20041;-66
2022/08/04 06:44:56;;;;;;;19.75;11.63;;;22.60;99.90;;;;;;5062880;28;20062;-66
2022/08/04 06:47:23;;;;;;;22.60;11.18;;;22.70;99.90;;;;;;5062065;28;20045;-66
2022/08/04 06:49:51;;;;;;;21.70;10.68;;;22.90;99.90;;;;;;5060916;28;20049;-65
2022/08/04 06:52:19;;;;;;;20.50;12.02;;;23.00;99.90;;;;;;5060883;28;20105;-66
2022/08/04 06:54:46;;;;;;;22.90;10.80;;;23.20;99.90;;;;;;5035726;28;20373;-66
2022/08/04 06:57:27;;;;;;;20.95;10.10;;;23.20;99.90;;;;;;5060593;28;20044;-65
2022/08/04 07:00:11;;;;;;;21.50;9.93;;;23.40;99.90;;;;;;5057740;28;20055;-65
2022/08/04 07:02:44;;;;;;;19.80;9.23;;;23.40;99.90;;;;;;5058722;28;20063;-66
2022/08/04 07:05:10;;;;;;;22.52;8.80;;;23.50;99.90;;;;;;5057092;28;20399;-66
2022/08/04 07:07:38;;;;;;;17.08;9.00;;;23.60;99.90;;;;;;5062582;28;20048;-66
2022/08/04 07:10:05;;;;;;;16.90;8.50;;;23.70;99.90;;;;;;5062415;28;20116;-66
2022/08/04 07:12:31;;;;;;;18.27;8.40;;;23.80;99.90;;;;;;5074378;28;20051;-66
2022/08/04 07:14:57;;;;;;;20.60;9.95;;;23.80;99.90;;;;;;5044380;28;20098;-66
2022/08/04 07:17:24;;;;;;;16.75;8.57;;;23.80;99.90;;;;;;5061216;28;20051;-66
2022/08/04 07:19:51;;;;;;;18.83;8.65;;;24.00;99.90;;;;;;5064835;28;20036;-65
2022/08/04 07:22:18;;;;;;;15.63;7.72;;;24.00;99.90;;;;;;5043048;28;20468;-65
2022/08/04 07:24:44;;;;;;;20.95;8.15;;;24.10;99.90;;;;;;5061355;28;20069;-65
2022/08/04 07:27:10;;;;;;;16.75;8.00;;;24.20;99.90;;;;;;5060578;28;20182;-66
2022/08/04 07:29:37;;;;;;;18.13;8.25;;;24.30;99.90;;;;;;5062216;28;20041;-66
2022/08/04 07:32:04;;;;;;;17.25;7.28;;;24.40;99.90;;;;;;5059354;28;20067;-66
2022/08/04 07:34:30;;;;;;;15.98;8.05;;;24.40;99.90;;;;;;5064294;28;20123;-66
2022/08/04 07:36:58;;;;;;;18.52;8.25;;;24.40;99.90;;;;;;5058494;28;20310;-66
2022/08/04 07:39:30;;;;;;;22.75;8.60;;;24.40;99.90;;;;;;5063895;28;20040;-66
2022/08/04 07:41:58;;;;;;;25.38;8.93;;;24.50;99.90;;;;;;5061879;28;20382;-66
2022/08/04 07:44:24;;;;;;;17.30;7.97;;;24.50;99.90;;;;;;5057587;28;20067;-66
2022/08/04 07:46:50;;;;;;;16.48;7.80;;;24.60;99.90;;;;;;5053502;28;20110;-66
2022/08/04 07:49:16;;;;;;;16.65;7.88;;;24.70;99.90;;;;;;5050633;28;20132;-66
2022/08/04 07:51:42;;;;;;;15.77;7.53;;;24.90;99.90;;;;;;5063763;28;20036;-66
2022/08/04 07:54:09;;;;;;;18.17;7.80;;;24.90;99.90;;;;;;5060940;28;20074;-66
2022/08/04 07:56:37;;;;;;;13.65;7.13;;;25.10;99.90;;;;;;5055690;28;20067;-66
2022/08/04 07:59:03;;;;;;;15.15;6.57;;;25.10;99.90;;;;;;5063963;28;20033;-66
2022/08/04 08:01:29;;;;;;;16.40;7.03;;;25.20;99.90;;;;;;5056171;28;20036;-66
2022/08/04 08:03:57;;;;;;;17.13;7.53;;;25.30;99.90;;;;;;5059986;28;20075;-67
2022/08/04 08:06:23;;;;;;;15.10;8.20;;;25.40;99.90;;;;;;5056419;28;20484;-67
2022/08/04 08:08:49;;;;;;;15.43;7.55;;;25.40;99.90;;;;;;5050702;28;20060;-66
2022/08/04 08:11:16;;;;;;;16.38;8.15;;;25.40;99.90;;;;;;5060126;28;20048;-65
2022/08/04 08:13:47;;;;;;;19.38;8.90;;;25.50;99.90;;;;;;5061913;28;20044;-63
2022/08/04 08:16:13;;;;;;;13.15;8.18;;;25.60;99.90;;;;;;5062174;28;20159;-64
2022/08/04 08:18:39;;;;;;;18.73;8.80;;;25.60;99.90;;;;;;5053273;28;20068;-67
2022/08/04 08:21:06;;;;;;;18.35;8.63;;;25.70;99.90;;;;;;5074055;28;20198;-65
2022/08/04 08:23:33;;;;;;;14.43;8.38;;;25.80;99.90;;;;;;5074227;28;20048;-64
2022/08/04 08:26:00;;;;;;;19.08;8.25;;;25.80;99.90;;;;;;5055966;28;20044;-66
2022/08/04 08:28:26;;;;;;;16.80;8.10;;;25.80;99.90;;;;;;5058938;28;20391;-65
2022/08/04 08:30:52;;;;;;;17.40;8.88;;;25.80;99.90;;;;;;5063719;28;20043;-65
2022/08/04 08:33:19;;;;;;;15.43;9.45;;;25.90;99.90;;;;;;5052465;28;20116;-66
2022/08/04 08:35:50;;;;;;;16.33;8.30;;;25.80;99.90;;;;;;5062698;28;20099;-66
2022/08/04 08:38:20;;;;;;;14.95;8.00;;;25.80;99.90;;;;;;5069302;28;20044;-67
2022/08/04 08:40:55;;;;;;;16.67;8.25;;;25.80;99.90;;;;;;5059969;28;20040;-67
2022/08/04 08:43:26;;;;;;;18.33;9.45;;;25.80;99.90;;;;;;5074971;28;20203;-66
2022/08/04 08:46:23;;;;;;;15.63;9.55;;;25.80;99.90;;;;;;5077589;28;20551;-65
2022/08/04 08:49:07;;;;;;;15.90;9.63;;;25.70;99.90;;;;;;5057679;28;20134;-64
2022/08/04 08:51:50;;;;;;;19.48;9.52;;;25.60;99.90;;;;;;5067360;28;20093;-66
2022/08/04 08:54:46;;;;;;;22.52;9.63;;;25.60;99.90;;;;;;5069958;28;20071;-65
2022/08/04 08:57:26;;;;;;;17.80;10.02;;;25.60;99.90;;;;;;5069208;28;20430;-64
2022/08/04 09:00:00;;;;;;;20.45;8.55;;;25.80;99.90;;;;;;5057893;28;20048;-65
2022/08/04 09:02:59;;;;;;;17.13;8.43;;;25.90;99.90;;;;;;5063661;28;20044;-65
2022/08/04 09:05:53;;;;;;;17.33;8.82;;;25.80;99.90;;;;;;5061230;28;20488;-66
2022/08/04 09:08:30;;;;;;;22.52;8.88;;;25.90;99.90;;;;;;5072980;28;20040;-65
2022/08/04 09:11:14;;;;;;;15.25;7.88;;;26.00;99.90;;;;;;5072440;28;20049;-66
2022/08/04 09:13:56;;;;;;;17.67;7.45;;;26.10;99.90;;;;;;5073895;28;20383;-65
2022/08/04 09:16:36;;;;;;;18.10;7.47;;;26.10;99.90;;;;;;5072318;28;20098;-66
2022/08/04 09:19:18;;;;;;;15.65;7.93;;;26.30;99.90;;;;;;5070877;28;20033;-65
2022/08/04 09:21:46;;;;;;;16.65;8.52;;;26.30;99.90;;;;;;5071229;28;20120;-65
2022/08/04 09:24:17;;;;;;;19.55;8.98;;;26.20;99.90;;;;;;5073264;28;20047;-66
2022/08/04 09:27:07;;;;;;;15.25;8.00;;;26.10;99.90;;;;;;5070774;28;20115;-66
2022/08/04 09:29:42;;;;;;;17.83;6.50;;;25.90;99.90;;;;;;5044038;28;20080;-66
2022/08/04 09:32:19;;;;;;;11.60;5.78;;;25.80;99.90;;;;;;5068589;28;20045;-65
2022/08/04 09:35:09;;;;;;;13.02;5.57;;;25.80;99.90;;;;;;5063113;28;20072;-66
2022/08/04 09:37:43;;;;;;;11.13;4.63;;;25.70;99.90;;;;;;5086061;28;20040;-65
2022/08/04 09:40:32;;;;;;;13.68;5.70;;;25.70;99.90;;;;;;5073953;28;20487;-64
2022/08/04 09:43:13;;;;;;;11.38;4.65;;;25.50;99.90;;;;;;5069766;28;20064;-65
2022/08/04 09:45:53;;;;;;;8.82;4.53;;;25.50;99.90;;;;;;5052547;28;20037;-66
2022/08/04 09:48:30;;;;;;;11.38;4.38;;;25.50;99.90;;;;;;5060364;28;20470;-66
2022/08/04 09:50:58;;;;;;;8.60;3.92;;;25.50;99.90;;;;;;5054642;28;20098;-65
2022/08/04 09:53:37;;;;;;;13.70;4.32;;;25.50;99.90;;;;;;5064932;28;20522;-65
2022/08/04 09:56:11;;;;;;;10.55;4.68;;;25.40;99.90;;;;;;5061178;28;20451;-65
2022/08/04 09:58:50;;;;;;;12.20;4.88;;;25.30;99.90;;;;;;5064892;28;20044;-65
2022/08/04 10:01:18;;;;;;;9.52;5.03;;;25.30;99.90;;;;;;5071420;28;20036;-66
2022/08/04 10:03:55;;;;;;;9.93;4.90;;;25.40;99.90;;;;;;5062560;28;20062;-66
2022/08/04 10:06:54;;;;;;;11.15;4.32;;;25.60;99.90;;;;;;5063756;28;20090;-65
2022/08/04 10:09:28;;;;;;;10.10;3.03;;;25.70;99.90;;;;;;5069645;28;20130;-66
2022/08/04 10:12:02;;;;;;;9.02;3.20;;;25.80;99.90;;;;;;5069503;28;20084;-66
2022/08/04 10:14:42;;;;;;;10.43;3.28;;;25.70;99.90;;;;;;5066670;28;20499;-65
2022/08/04 10:17:38;;;;;;;18.83;3.30;;;25.70;99.90;;;;;;5054921;28;20056;-65
2022/08/04 10:20:21;;;;;;;9.68;3.45;;;25.80;99.90;;;;;;5061388;28;20475;-65
2022/08/04 10:23:04;;;;;;;7.80;2.67;;;26.00;99.90;;;;;;5052568;28;20052;-66
2022/08/04 10:25:51;;;;;;;13.23;3.50;;;26.20;99.90;;;;;;5054198;28;20037;-65
2022/08/04 10:28:20;;;;;;;8.88;3.00;;;26.40;99.90;;;;;;5056904;28;20061;-66
2022/08/04 10:30:59;;;;;;;9.90;3.67;;;26.60;99.90;;;;;;5055415;28;20090;-64
2022/08/04 10:34:05;;;;;;;12.95;3.90;;;26.80;99.90;;;;;;5071738;28;20080;-66
2022/08/04 10:36:43;;;;;;;10.60;4.25;;;26.70;99.90;;;;;;5032408;28;20055;-65
2022/08/04 10:39:12;;;;;;;12.25;3.40;;;26.60;99.90;;;;;;5055927;28;20049;-65
2022/08/04 10:42:05;;;;;;;8.43;3.38;;;26.60;99.90;;;;;;5058482;28;20048;-65
2022/08/04 10:44:39;;;;;;;9.65;3.75;;;26.50;99.90;;;;;;5055628;28;20041;-64
2022/08/04 10:47:13;;;;;;;7.72;3.33;;;26.40;99.90;;;;;;5073732;28;20091;-66
2022/08/04 10:49:49;;;;;;;7.22;3.30;;;26.40;99.90;;;;;;5054431;28;20097;-65
2022/08/04 10:52:36;;;;;;;7.88;3.38;;;26.20;99.90;;;;;;5053812;28;20067;-65
2022/08/04 10:55:05;;;;;;;12.63;4.00;;;26.10;99.90;;;;;;5079436;28;20033;-66
2022/08/04 10:57:39;;;;;;;7.05;3.20;;;26.30;99.90;;;;;;5056672;28;20398;-64
2022/08/04 11:00:20;;;;;;;4.53;3.03;;;26.30;99.90;;;;;;5057568;28;20044;-64
2022/08/04 11:03:20;;;;;;;6.80;2.45;;;26.30;99.90;;;;;;5058338;28;20636;-64
2022/08/04 11:05:51;;;;;;;6.50;2.70;;;26.20;99.90;;;;;;5051428;28;20037;-65
2022/08/04 11:08:24;;;;;;;;;;;26.20;99.90;;;;;;5055070;28;20415;-65
2022/08/04 11:11:13;;;;;;;4.72;2.60;;;26.10;99.90;;;;;;5067768;28;19928;-65
2022/08/04 11:14:06;;;;;;;7.65;3.40;;;26.00;99.90;;;;;;5072534;28;20266;-64
2022/08/04 11:16:50;;;;;;;8.13;2.90;;;26.10;99.90;;;;;;5063137;28;20044;-66
2022/08/04 11:19:48;;;;;;;4.22;2.45;;;26.00;99.90;;;;;;5058821;28;20434;-65
2022/08/04 11:22:23;;;;;;;5.47;2.40;;;25.90;99.90;;;;;;5027030;28;20056;-64
2022/08/04 11:24:55;;;;;;;7.10;2.17;;;25.90;99.90;;;;;;5078287;28;20036;-66
2022/08/04 11:27:23;;;;;;;6.38;2.40;;;25.90;99.90;;;;;;5071902;28;20505;-64
2022/08/04 11:30:10;;;;;;;4.13;2.20;;;25.80;99.90;;;;;;5045586;28;20085;-65
2022/08/04 11:32:55;;;;;;;4.10;2.17;;;25.70;99.90;;;;;;5060182;28;20671;-64
2022/08/04 11:35:33;;;;;;;4.22;2.45;;;25.50;99.90;;;;;;5075371;28;20075;-65
2022/08/04 11:38:18;;;;;;;6.25;2.80;;;25.30;99.90;;;;;;5053251;28;20325;-64
2022/08/04 11:40:48;;;;;;;3.67;2.20;;;25.20;99.90;;;;;;5056462;28;20086;-65
2022/08/04 11:43:54;;;;;;;2.63;2.20;;;25.10;99.90;;;;;;5051542;28;20045;-64
2022/08/04 11:46:36;;;;;;;4.25;2.20;;;24.90;99.90;;;;;;5000623;28;20072;-66
2022/08/04 11:49:02;;;;;;;;;;;24.80;99.90;;;;;;5005410;28;20543;-64
2022/08/04 11:51:29;;;;;;;4.28;2.30;;;24.70;99.90;;;;;;5038678;28;19920;-64
2022/08/04 11:53:55;;;;;;;4.85;2.28;;;24.60;99.90;;;;;;5057542;28;20142;-64
2022/08/04 11:56:21;;;;;;;6.18;2.60;;;24.50;99.90;;;;;;5053874;28;20566;-64
2022/08/04 11:58:47;;;;;;;4.50;2.50;;;24.40;99.90;;;;;;5054134;28;20494;-64
2022/08/04 12:01:34;;;;;;;4.53;2.45;;;24.30;99.90;;;;;;5056351;28;20033;-64
2022/08/04 12:04:31;;;;;;;4.00;2.40;;;24.20;99.90;;;;;;5061938;28;20169;-65
2022/08/04 12:06:56;;;;;;;4.13;2.05;;;24.10;99.90;;;;;;5052058;28;20044;-66
2022/08/04 12:09:38;;;;;;;4.20;1.90;;;24.10;99.90;;;;;;5049953;28;20057;-67
2022/08/04 12:12:20;;;;;;;3.05;1.90;;;24.00;99.90;;;;;;5060996;28;20041;-66
2022/08/04 12:15:17;;;;;;;3.35;1.90;;;23.90;99.90;;;;;;5061827;28;20740;-64
2022/08/04 12:18:01;;;;;;;2.72;1.67;;;23.80;99.90;;;;;;5054935;28;20398;-64
2022/08/04 12:20:30;;;;;;;2.20;1.90;;;23.70;99.90;;;;;;5074436;28;20086;-64
2022/08/04 12:22:56;;;;;;;3.20;2.00;;;23.70;99.90;;;;;;5060450;28;20040;-63
2022/08/04 12:25:35;;;;;;;2.92;1.70;;;23.70;99.90;;;;;;5061222;28;20055;-66
2022/08/04 12:28:15;;;;;;;4.00;1.90;;;23.70;99.90;;;;;;5059976;28;20074;-65
2022/08/04 12:30:54;;;;;;;4.60;2.20;;;23.80;99.90;;;;;;5070678;28;20089;-66
2022/08/04 12:33:26;;;;;;;5.18;2.15;;;24.00;99.90;;;;;;5054455;28;20515;-66
2022/08/04 12:36:03;;;;;;;4.40;2.25;;;24.20;99.90;;;;;;5067053;28;20072;-65
2022/08/04 12:38:32;;;;;;;5.75;2.13;;;24.30;99.90;;;;;;5073177;28;20048;-67
2022/08/04 12:41:03;;;;;;;4.00;1.75;;;24.40;99.90;;;;;;5053590;28;20040;-65
2022/08/04 12:43:41;;;;;;;3.25;1.85;;;24.40;99.90;;;;;;5052912;28;20087;-66
2022/08/04 12:46:09;;;;;;;2.63;1.70;;;24.40;99.90;;;;;;5056250;28;20128;-66
2022/08/04 12:48:37;;;;;;;2.10;1.60;;;24.50;99.90;;;;;;5054698;28;20123;-66
2022/08/04 12:51:07;;;;;;;2.78;1.50;;;24.50;99.90;;;;;;5053907;28;20810;-65
2022/08/04 12:53:41;;;;;;;3.65;1.77;;;24.40;99.90;;;;;;5054687;28;20408;-64
2022/08/04 12:56:13;;;;;;;2.40;1.60;;;24.50;99.90;;;;;;5056137;28;20372;-66
2022/08/04 12:58:48;;;;;;;4.50;1.67;;;24.60;99.90;;;;;;5057708;28;20102;-65
2022/08/04 13:01:22;;;;;;;3.90;1.75;;;24.70;99.90;;;;;;5060596;28;20665;-65
2022/08/04 13:04:25;;;;;;;3.28;1.80;;;24.70;99.90;;;;;;5058792;28;20459;-66
2022/08/04 13:07:04;;;;;;;3.10;2.00;;;25.00;99.90;;;;;;5050001;28;20420;-65
2022/08/04 13:09:32;;;;;;;2.60;1.70;;;25.20;99.90;;;;;;5057710;28;20526;-65
2022/08/04 13:12:03;;;;;;;4.00;1.70;;;25.20;99.90;;;;;;5064967;28;20064;-66
2022/08/04 13:14:37;;;;;;;4.30;1.85;;;25.50;99.90;;;;;;5060305;28;20040;-66
2022/08/04 13:17:04;;;;;;;2.97;1.90;;;25.60;99.90;;;;;;5058980;28;20139;-64
2022/08/04 13:19:30;;;;;;;2.30;1.73;;;25.60;99.90;;;;;;5055015;28;20515;-66
2022/08/04 13:21:59;;;;;;;2.53;1.80;;;25.50;99.90;;;;;;5061428;28;20079;-64
2022/08/04 13:24:25;;;;;;;2.72;1.98;;;25.40;99.90;;;;;;5057038;28;20052;-65
2022/08/04 13:26:57;;;;;;;3.47;2.03;;;25.40;99.90;;;;;;5058119;28;20411;-66
2022/08/04 13:29:42;;;;;;;4.75;2.13;;;25.50;99.90;;;;;;5053056;28;20122;-65